Time;durP1;ratioP1;P1;durP2;ratioP2;P2;SDS_P1;SDS_P2;PMS_P1;PMS_P2;Temp;Humidity;BMP_temperature;BMP_pressure;BME280_temperature;BME280_humidity;BME280_pressure;Samples;Min_cycle;Max_cycle;Signal;HPM_P1;HPM_P2
2021/08/03 00:00:37;;;;;;;2.13;2.00;;;14.30;99.90;;;;;;5047822;28;20613;-85
2021/08/03 00:03:08;;;;;;;2.40;2.20;;;14.30;99.90;;;;;;5050799;28;20696;-85
2021/08/03 00:05:38;;;;;;;2.50;2.30;;;14.30;99.90;;;;;;5051581;28;20610;-85
2021/08/03 00:08:11;;;;;;;2.70;2.50;;;14.40;99.90;;;;;;5050730;28;20737;-85
2021/08/03 00:10:38;;;;;;;2.13;1.97;;;14.40;99.90;;;;;;5051743;28;20629;-84
2021/08/03 00:13:06;;;;;;;2.33;1.87;;;14.30;99.90;;;;;;5050051;28;20645;-84
2021/08/03 00:15:33;;;;;;;2.80;2.40;;;14.40;99.90;;;;;;5051304;28;20624;-85
2021/08/03 00:18:02;;;;;;;3.00;2.37;;;14.50;99.90;;;;;;5047530;28;20638;-85
2021/08/03 00:20:29;;;;;;;2.30;2.20;;;14.50;99.90;;;;;;5053917;28;21194;-85
2021/08/03 00:23:00;;;;;;;3.97;2.80;;;14.50;99.90;;;;;;5050510;28;21195;-85
2021/08/03 00:25:28;;;;;;;4.40;2.30;;;14.60;99.90;;;;;;5050774;28;20610;-85
2021/08/03 00:27:55;;;;;;;2.80;2.60;;;14.60;99.90;;;;;;5051099;28;20626;-85
2021/08/03 00:30:24;;;;;;;2.17;2.00;;;14.60;99.90;;;;;;5050603;28;20633;-85
2021/08/03 00:32:52;;;;;;;2.20;2.00;;;14.60;99.90;;;;;;5036140;28;21171;-85
2021/08/03 00:35:20;;;;;;;2.20;2.07;;;14.50;99.90;;;;;;5049957;28;20618;-85
2021/08/03 00:37:47;;;;;;;3.70;2.40;;;14.60;99.90;;;;;;5050638;28;21000;-85
2021/08/03 00:40:16;;;;;;;2.70;2.20;;;14.60;99.90;;;;;;5050277;28;20637;-85
2021/08/03 00:42:43;;;;;;;2.00;1.90;;;14.60;99.90;;;;;;5050576;28;20642;-85
2021/08/03 00:45:11;;;;;;;3.70;2.60;;;14.70;99.90;;;;;;5050072;28;20650;-86
2021/08/03 00:47:38;;;;;;;4.27;1.97;;;14.70;99.90;;;;;;5045204;28;20626;-85
2021/08/03 00:50:06;;;;;;;2.87;2.67;;;14.70;99.90;;;;;;5048718;28;20681;-85
2021/08/03 00:52:35;;;;;;;2.27;2.07;;;14.70;99.90;;;;;;5049141;28;20621;-85
2021/08/03 00:55:03;;;;;;;2.33;1.97;;;14.60;99.90;;;;;;5050176;28;20975;-85
2021/08/03 00:57:32;;;;;;;8.13;2.13;;;14.60;99.90;;;;;;5050917;28;20610;-85
2021/08/03 00:59:59;;;;;;;2.30;2.10;;;14.60;99.90;;;;;;5050407;28;21016;-85
2021/08/03 01:02:26;;;;;;;2.27;2.17;;;14.60;99.90;;;;;;5043805;28;20642;-85
2021/08/03 01:04:53;;;;;;;1.80;1.70;;;14.60;99.90;;;;;;5050228;28;20647;-86
2021/08/03 01:07:28;;;;;;;2.20;2.10;;;14.50;99.90;;;;;;5050080;28;20636;-86
2021/08/03 01:10:09;;;;;;;2.57;2.40;;;14.60;99.90;;;;;;5050409;28;21189;-86
2021/08/03 01:12:53;;;;;;;2.13;2.03;;;14.60;99.90;;;;;;5049748;28;20652;-86
2021/08/03 01:15:24;;;;;;;2.20;2.00;;;14.70;99.90;;;;;;5050710;28;20620;-86
2021/08/03 01:18:02;;;;;;;2.10;2.00;;;14.70;99.90;;;;;;5044766;28;21013;-86
2021/08/03 01:20:38;;;;;;;2.10;2.00;;;14.60;99.90;;;;;;5050168;28;20622;-86
2021/08/03 01:23:58;;;;;;;2.47;2.27;;;14.50;99.90;;;;;;5049791;28;20712;-85
2021/08/03 01:26:44;;;;;;;1.90;1.80;;;14.40;99.90;;;;;;5030608;28;20623;-86
2021/08/03 01:29:17;;;;;;;2.47;2.10;;;14.40;99.90;;;;;;5038461;28;20634;-86
2021/08/03 01:31:49;;;;;;;2.27;2.10;;;14.50;99.90;;;;;;5045583;28;20656;-86
2021/08/03 01:34:20;;;;;;;2.40;2.20;;;14.50;99.90;;;;;;5048239;28;20622;-86
2021/08/03 01:36:52;;;;;;;2.20;2.10;;;14.50;99.90;;;;;;5050148;28;20724;-86
2021/08/03 01:39:24;;;;;;;1.73;1.63;;;14.50;99.90;;;;;;5049635;28;20650;-85
2021/08/03 01:41:54;;;;;;;1.90;1.80;;;14.50;99.90;;;;;;5050028;28;20622;-85
2021/08/03 01:44:26;;;;;;;2.90;2.17;;;14.60;99.90;;;;;;5049559;28;20658;-86
2021/08/03 01:46:57;;;;;;;2.93;2.70;;;14.50;99.90;;;;;;5049041;28;20684;-86
2021/08/03 01:49:27;;;;;;;2.53;2.33;;;14.50;99.90;;;;;;5053677;28;20614;-86
2021/08/03 01:51:55;;;;;;;3.30;2.10;;;14.50;99.90;;;;;;5053234;28;20681;-85
2021/08/03 01:54:25;;;;;;;2.50;2.30;;;14.50;99.90;;;;;;5053794;28;21533;-85
2021/08/03 01:56:56;;;;;;;2.80;2.00;;;14.60;99.90;;;;;;5053117;28;20679;-85
2021/08/03 01:59:29;;;;;;;5.17;2.50;;;14.50;99.90;;;;;;5053192;28;21118;-85
2021/08/03 02:01:59;;;;;;;2.33;2.13;;;14.60;99.90;;;;;;5049408;28;20699;-85
2021/08/03 02:04:29;;;;;;;2.13;1.90;;;14.70;99.90;;;;;;5051397;28;20642;-85
2021/08/03 02:06:57;;;;;;;2.10;1.80;;;14.60;99.90;;;;;;5051295;28;20638;-85
2021/08/03 02:09:27;;;;;;;2.47;2.27;;;14.60;99.90;;;;;;5050464;28;21218;-85
2021/08/03 02:11:57;;;;;;;2.17;1.97;;;14.60;99.90;;;;;;5047448;28;20634;-85
2021/08/03 02:14:27;;;;;;;2.30;2.10;;;14.60;99.90;;;;;;5053156;28;20721;-85
2021/08/03 02:16:55;;;;;;;2.03;1.93;;;14.60;99.90;;;;;;5051351;28;20684;-85
2021/08/03 02:19:23;;;;;;;2.00;1.90;;;14.80;99.90;;;;;;5050729;28;20618;-86
2021/08/03 02:21:51;;;;;;;2.50;2.30;;;14.70;99.90;;;;;;5052708;28;20634;-85
2021/08/03 02:24:20;;;;;;;2.10;2.00;;;14.80;99.90;;;;;;5053085;28;20630;-86
2021/08/03 02:26:48;;;;;;;2.93;2.73;;;14.80;99.90;;;;;;5052622;28;20636;-85
2021/08/03 02:29:17;;;;;;;3.13;2.83;;;14.80;99.90;;;;;;5052517;28;20633;-86
2021/08/03 02:31:53;;;;;;;2.40;2.20;;;14.90;99.90;;;;;;5033308;28;21200;-86
2021/08/03 02:34:43;;;;;;;2.50;2.23;;;14.80;99.90;;;;;;5037406;28;20629;-86
2021/08/03 02:37:16;;;;;;;2.50;2.37;;;14.70;99.90;;;;;;5052891;28;20960;-85
2021/08/03 02:39:45;;;;;;;6.70;2.20;;;14.70;99.90;;;;;;5053426;28;20614;-86
2021/08/03 02:42:14;;;;;;;2.33;2.13;;;14.70;99.90;;;;;;5052439;28;20625;-85
2021/08/03 02:44:43;;;;;;;2.33;2.20;;;14.70;99.90;;;;;;5052939;28;20700;-86
2021/08/03 02:47:19;;;;;;;2.17;2.07;;;14.70;99.90;;;;;;5052997;28;21006;-86
2021/08/03 02:49:52;;;;;;;2.20;2.10;;;14.60;99.90;;;;;;5046786;28;20645;-86
2021/08/03 02:52:25;;;;;;;2.03;1.93;;;14.70;99.90;;;;;;5052631;28;21189;-86
2021/08/03 02:54:58;;;;;;;2.30;1.97;;;14.70;99.90;;;;;;5052797;28;20653;-85
2021/08/03 02:57:25;;;;;;;1.93;1.83;;;14.60;99.90;;;;;;5052059;28;20606;-85
2021/08/03 03:00:01;;;;;;;2.00;1.90;;;14.60;99.90;;;;;;5052793;28;20971;-86
2021/08/03 03:02:31;;;;;;;2.93;2.40;;;14.50;99.90;;;;;;5051971;28;20644;-86
2021/08/03 03:05:05;;;;;;;3.60;2.20;;;14.50;99.90;;;;;;5047324;28;20708;-85
2021/08/03 03:07:36;;;;;;;4.40;2.20;;;14.50;99.90;;;;;;5053141;28;21194;-85
2021/08/03 03:10:07;;;;;;;4.00;2.47;;;14.40;99.90;;;;;;5052217;28;20614;-85
2021/08/03 03:12:37;;;;;;;2.60;2.40;;;14.30;99.90;;;;;;5052176;28;20629;-85
2021/08/03 03:15:05;;;;;;;5.67;2.27;;;14.20;99.90;;;;;;5052587;28;20608;-85
2021/08/03 03:17:36;;;;;;;2.50;2.10;;;14.20;99.90;;;;;;5051292;28;20617;-85
2021/08/03 03:20:04;;;;;;;2.37;2.17;;;14.10;99.90;;;;;;5047972;28;20633;-86
2021/08/03 03:22:34;;;;;;;2.47;2.27;;;14.10;99.90;;;;;;5056403;28;21106;-85
2021/08/03 03:25:02;;;;;;;2.70;2.50;;;14.10;99.90;;;;;;5072327;28;20658;-85
2021/08/03 03:27:30;;;;;;;3.33;2.53;;;14.10;99.90;;;;;;5054043;28;20622;-85
2021/08/03 03:29:59;;;;;;;2.10;2.00;;;14.10;99.90;;;;;;5051351;28;21209;-85
2021/08/03 03:32:29;;;;;;;3.80;3.30;;;14.10;99.90;;;;;;5050717;28;21186;-85
2021/08/03 03:34:59;;;;;;;2.93;2.30;;;14.10;99.90;;;;;;5046343;28;21210;-85
2021/08/03 03:37:28;;;;;;;3.23;2.93;;;14.10;99.90;;;;;;5051693;28;20634;-85
2021/08/03 03:39:57;;;;;;;2.80;2.57;;;14.10;99.90;;;;;;5051927;28;20973;-85
2021/08/03 03:42:31;;;;;;;5.37;3.00;;;14.10;99.90;;;;;;5050871;28;20621;-85
2021/08/03 03:44:58;;;;;;;3.00;2.47;;;14.00;99.90;;;;;;5051839;28;20650;-85
2021/08/03 03:47:29;;;;;;;3.17;2.87;;;13.90;99.90;;;;;;5052153;28;20605;-85
2021/08/03 03:50:00;;;;;;;5.20;2.60;;;13.90;99.90;;;;;;5046710;28;20708;-85
2021/08/03 03:52:31;;;;;;;2.93;2.60;;;13.80;99.90;;;;;;5051021;28;20677;-86
2021/08/03 03:54:59;;;;;;;4.60;3.43;;;13.80;99.90;;;;;;5050040;28;20646;-85
2021/08/03 03:57:29;;;;;;;3.27;2.93;;;13.80;99.90;;;;;;5050946;28;20684;-84
2021/08/03 03:59:58;;;;;;;3.30;3.00;;;13.80;99.90;;;;;;5050096;28;20688;-85
2021/08/03 04:02:28;;;;;;;3.93;3.00;;;13.80;99.90;;;;;;5049997;28;20963;-85
2021/08/03 04:04:59;;;;;;;3.20;2.90;;;13.70;99.90;;;;;;5045943;28;20705;-85
2021/08/03 04:07:26;;;;;;;5.30;2.47;;;13.70;99.90;;;;;;5051310;28;20630;-85
2021/08/03 04:10:02;;;;;;;3.53;2.33;;;13.80;99.90;;;;;;5049929;28;20685;-85
2021/08/03 04:12:29;;;;;;;3.27;2.80;;;13.80;99.90;;;;;;5042076;28;20617;-85
2021/08/03 04:14:56;;;;;;;4.83;2.47;;;13.70;99.90;;;;;;5050730;28;20620;-85
2021/08/03 04:17:23;;;;;;;3.50;3.00;;;13.80;99.90;;;;;;5051528;28;20617;-85
2021/08/03 04:19:51;;;;;;;3.47;2.43;;;13.80;99.90;;;;;;5047378;28;20645;-85
2021/08/03 04:22:19;;;;;;;3.10;2.80;;;13.90;99.90;;;;;;5048583;28;20668;-85
2021/08/03 04:24:46;;;;;;;6.03;3.53;;;13.90;99.90;;;;;;5050387;28;20658;-85
2021/08/03 04:27:13;;;;;;;3.37;2.93;;;13.90;99.90;;;;;;5050419;28;20677;-84
2021/08/03 04:29:40;;;;;;;4.30;3.13;;;14.00;99.90;;;;;;5050941;28;20629;-84
2021/08/03 04:32:07;;;;;;;2.47;2.27;;;14.10;99.90;;;;;;5049395;28;20723;-84
2021/08/03 04:34:34;;;;;;;2.87;2.60;;;14.00;99.90;;;;;;5051213;28;20978;-85
2021/08/03 04:37:01;;;;;;;3.10;2.90;;;14.00;99.90;;;;;;5050771;28;20667;-85
2021/08/03 04:39:30;;;;;;;4.80;2.60;;;13.90;99.90;;;;;;5050897;28;20729;-85
2021/08/03 04:41:57;;;;;;;4.47;3.33;;;13.90;99.90;;;;;;5049892;28;20644;-85
2021/08/03 04:44:24;;;;;;;2.43;2.23;;;13.90;99.90;;;;;;5050841;28;20692;-85
2021/08/03 04:46:51;;;;;;;2.93;2.63;;;14.00;99.90;;;;;;5050576;28;20613;-85
2021/08/03 04:49:18;;;;;;;2.60;2.40;;;14.00;99.90;;;;;;5050913;28;20953;-85
2021/08/03 04:51:45;;;;;;;3.87;3.23;;;13.90;99.90;;;;;;5050429;28;20626;-85
2021/08/03 04:54:11;;;;;;;2.90;2.70;;;13.90;99.90;;;;;;5050979;28;20972;-85
2021/08/03 04:56:40;;;;;;;4.50;2.50;;;13.90;99.90;;;;;;5042843;28;20634;-85
2021/08/03 04:59:07;;;;;;;2.90;2.70;;;13.90;99.90;;;;;;5050859;28;20629;-84
2021/08/03 05:01:33;;;;;;;6.30;3.37;;;13.90;99.90;;;;;;5050020;28;20706;-85
2021/08/03 05:04:01;;;;;;;3.03;2.83;;;13.90;99.90;;;;;;5051580;28;20672;-84
2021/08/03 05:06:28;;;;;;;4.23;3.17;;;14.10;99.90;;;;;;5050392;28;20653;-85
2021/08/03 05:08:55;;;;;;;4.20;3.30;;;14.10;99.90;;;;;;5049814;28;21193;-85
2021/08/03 05:11:21;;;;;;;3.17;2.87;;;14.10;99.90;;;;;;5050101;28;20687;-85
2021/08/03 05:13:50;;;;;;;4.00;2.90;;;14.10;99.90;;;;;;5050276;28;20632;-85
2021/08/03 05:16:17;;;;;;;3.30;2.53;;;14.10;99.90;;;;;;5050538;28;20663;-85
2021/08/03 05:18:43;;;;;;;6.10;2.90;;;14.10;99.90;;;;;;5049943;28;20610;-84
2021/08/03 05:21:10;;;;;;;10.50;3.10;;;14.10;99.90;;;;;;5049377;28;21241;-84
2021/08/03 05:23:37;;;;;;;3.23;3.03;;;14.10;99.90;;;;;;5049213;28;20617;-85
2021/08/03 05:26:04;;;;;;;2.43;2.23;;;14.10;99.90;;;;;;5050397;28;20719;-85
2021/08/03 05:28:31;;;;;;;3.20;2.90;;;14.10;99.90;;;;;;5050568;28;21193;-85
2021/08/03 05:30:59;;;;;;;3.10;2.63;;;14.20;99.90;;;;;;5040584;28;21191;-85
2021/08/03 05:33:26;;;;;;;3.43;2.67;;;14.20;99.90;;;;;;5048402;28;21422;-85
2021/08/03 05:35:53;;;;;;;3.50;3.17;;;14.30;99.90;;;;;;5049135;28;20623;-85
2021/08/03 05:38:20;;;;;;;3.60;2.83;;;14.40;99.90;;;;;;5050808;28;20621;-85
2021/08/03 05:40:47;;;;;;;3.00;2.80;;;14.30;99.90;;;;;;5042219;28;20636;-85
2021/08/03 05:43:14;;;;;;;5.50;3.73;;;14.40;99.90;;;;;;5048471;28;20602;-85
2021/08/03 05:45:42;;;;;;;3.87;3.57;;;14.40;99.90;;;;;;5049863;28;20696;-84
2021/08/03 05:48:11;;;;;;;3.73;2.87;;;14.40;99.90;;;;;;5050616;28;20630;-85
2021/08/03 05:50:38;;;;;;;3.03;2.80;;;14.50;99.90;;;;;;5051072;28;20660;-85
2021/08/03 05:53:04;;;;;;;3.40;2.87;;;14.50;99.90;;;;;;5050952;28;21190;-85
2021/08/03 05:55:31;;;;;;;4.43;2.77;;;14.50;99.90;;;;;;5060445;28;20684;-85
2021/08/03 05:57:59;;;;;;;3.17;2.73;;;14.60;99.90;;;;;;5052162;28;20676;-86
2021/08/03 06:00:27;;;;;;;4.13;3.57;;;14.70;99.90;;;;;;5052801;28;20661;-85
2021/08/03 06:02:54;;;;;;;4.00;3.53;;;14.70;99.90;;;;;;5051664;28;20621;-85
2021/08/03 06:05:22;;;;;;;2.73;2.50;;;14.80;99.90;;;;;;5052067;28;21198;-85
2021/08/03 06:07:52;;;;;;;2.63;2.43;;;14.80;99.90;;;;;;5051918;28;20621;-85
2021/08/03 06:10:19;;;;;;;2.80;2.60;;;14.90;99.90;;;;;;5051099;28;20677;-85
2021/08/03 06:12:48;;;;;;;2.60;2.40;;;14.90;99.90;;;;;;5051698;28;20628;-85
2021/08/03 06:15:16;;;;;;;2.60;2.40;;;15.00;99.90;;;;;;5052366;28;20664;-84
2021/08/03 06:17:47;;;;;;;6.03;2.20;;;15.00;99.90;;;;;;5052790;28;20618;-85
2021/08/03 06:20:14;;;;;;;2.30;2.10;;;14.90;99.90;;;;;;5053008;28;20618;-85
2021/08/03 06:22:48;;;;;;;3.47;2.13;;;15.00;99.90;;;;;;5053151;28;20621;-85
2021/08/03 06:25:17;;;;;;;3.80;2.23;;;15.00;99.90;;;;;;5052564;28;20654;-85
2021/08/03 06:27:44;;;;;;;5.63;2.00;;;15.10;99.90;;;;;;5052718;28;20977;-85
2021/08/03 06:30:12;;;;;;;2.93;2.30;;;15.20;99.90;;;;;;5054898;28;20700;-85
2021/08/03 06:32:42;;;;;;;2.70;2.50;;;15.20;99.90;;;;;;5066637;28;20617;-85
2021/08/03 06:35:12;;;;;;;2.40;2.13;;;15.30;99.90;;;;;;5056451;28;20645;-86
2021/08/03 06:37:39;;;;;;;5.23;2.50;;;15.30;99.90;;;;;;5057010;28;20614;-85
2021/08/03 06:40:09;;;;;;;2.47;2.27;;;15.50;99.90;;;;;;5056829;28;20609;-85
2021/08/03 06:42:48;;;;;;;2.67;1.80;;;15.60;99.90;;;;;;5055910;28;20605;-86
2021/08/03 06:45:19;;;;;;;2.23;2.03;;;15.70;99.90;;;;;;5056315;28;20711;-85
2021/08/03 06:47:54;;;;;;;1.90;1.80;;;15.90;99.90;;;;;;5036921;28;20618;-86
2021/08/03 06:50:26;;;;;;;2.13;1.93;;;16.10;99.50;;;;;;5055124;28;20633;-86
2021/08/03 06:52:54;;;;;;;2.00;1.80;;;16.20;99.40;;;;;;5055528;28;20614;-85
2021/08/03 06:55:28;;;;;;;2.63;1.80;;;16.40;98.90;;;;;;5055193;28;20623;-86
2021/08/03 06:57:58;;;;;;;1.70;1.60;;;16.50;98.70;;;;;;5055232;28;20621;-86
2021/08/03 07:00:26;;;;;;;2.60;1.83;;;16.60;98.60;;;;;;5055978;28;20617;-85
2021/08/03 07:02:54;;;;;;;2.07;1.97;;;16.60;99.40;;;;;;5050870;28;20621;-86
2021/08/03 07:05:25;;;;;;;4.53;3.03;;;16.60;99.00;;;;;;5052908;28;20691;-85
2021/08/03 07:07:57;;;;;;;3.23;1.83;;;16.60;98.40;;;;;;5052180;28;20618;-86
2021/08/03 07:10:27;;;;;;;2.50;1.60;;;16.60;98.60;;;;;;5054473;28;20735;-87
2021/08/03 07:12:54;;;;;;;1.70;1.53;;;16.60;98.80;;;;;;5053615;28;20606;-87
2021/08/03 07:15:23;;;;;;;1.90;1.80;;;16.70;98.80;;;;;;5054863;28;20630;-87
2021/08/03 07:17:51;;;;;;;3.97;1.83;;;16.90;98.60;;;;;;5053776;28;20709;-87
2021/08/03 07:20:18;;;;;;;1.40;1.20;;;17.10;98.20;;;;;;5053858;28;20618;-86
2021/08/03 07:22:45;;;;;;;2.50;1.90;;;17.30;97.80;;;;;;5051979;28;20621;-87
2021/08/03 07:25:12;;;;;;;2.80;1.63;;;17.30;98.50;;;;;;5052692;28;20679;-85
2021/08/03 07:27:40;;;;;;;2.33;1.50;;;17.30;97.80;;;;;;5053901;28;20664;-86
2021/08/03 07:30:10;;;;;;;2.40;2.20;;;17.40;97.80;;;;;;5052734;28;20639;-86
2021/08/03 07:32:38;;;;;;;1.67;1.57;;;17.40;97.80;;;;;;5055345;28;20665;-87
2021/08/03 07:35:06;;;;;;;1.77;1.67;;;17.40;98.20;;;;;;5054747;28;20613;-86
2021/08/03 07:37:35;;;;;;;1.87;1.77;;;17.50;98.30;;;;;;5054494;28;20622;-85
2021/08/03 07:40:02;;;;;;;1.83;1.73;;;17.50;97.40;;;;;;5053926;28;20685;-87
2021/08/03 07:42:29;;;;;;;2.60;2.00;;;17.60;97.20;;;;;;5055427;28;20617;-86
2021/08/03 07:44:57;;;;;;;4.23;2.47;;;17.60;96.90;;;;;;5054116;28;20669;-86
2021/08/03 07:47:24;;;;;;;2.07;1.50;;;17.60;97.40;;;;;;5054660;28;20824;-85
2021/08/03 07:49:52;;;;;;;3.97;1.73;;;17.70;97.10;;;;;;5052764;28;20640;-87
2021/08/03 07:52:19;;;;;;;1.60;1.50;;;17.80;97.30;;;;;;5054904;28;20613;-87
2021/08/03 07:54:46;;;;;;;4.47;3.60;;;17.90;96.80;;;;;;5051403;28;20616;-86
2021/08/03 07:57:13;;;;;;;3.90;2.40;;;18.00;96.40;;;;;;5040472;28;20696;-86
2021/08/03 07:59:40;;;;;;;2.27;2.07;;;18.00;97.10;;;;;;5032078;28;20623;-86
2021/08/03 08:02:08;;;;;;;2.13;1.93;;;18.10;97.20;;;;;;5048346;28;20614;-87
2021/08/03 08:04:35;;;;;;;1.87;1.77;;;18.20;96.40;;;;;;5054051;28;20618;-86
2021/08/03 08:07:03;;;;;;;3.70;2.00;;;18.20;97.90;;;;;;5046066;28;21073;-88
2021/08/03 08:09:32;;;;;;;1.63;1.53;;;18.30;96.80;;;;;;5043684;28;20623;-88
2021/08/03 08:12:01;;;;;;;2.17;1.97;;;18.30;97.00;;;;;;5050058;28;20623;-88
2021/08/03 08:14:30;;;;;;;2.60;2.17;;;18.40;98.00;;;;;;5050925;28;20626;-87
2021/08/03 08:16:57;;;;;;;2.30;2.10;;;18.50;97.40;;;;;;5052905;28;20657;-88
2021/08/03 08:19:26;;;;;;;2.77;1.97;;;18.60;96.30;;;;;;5052750;28;21022;-88
2021/08/03 08:21:53;;;;;;;2.73;2.40;;;18.70;96.20;;;;;;5052869;28;20618;-87
2021/08/03 08:24:22;;;;;;;2.10;1.90;;;18.80;96.10;;;;;;5052316;28;20594;-87
2021/08/03 08:26:50;;;;;;;2.70;2.00;;;18.60;96.00;;;;;;5051499;28;20664;-87
2021/08/03 08:29:19;;;;;;;1.63;1.53;;;18.60;96.30;;;;;;5052478;28;20974;-87
2021/08/03 08:31:47;;;;;;;2.97;1.80;;;18.60;96.40;;;;;;5072158;28;20665;-86
2021/08/03 08:34:14;;;;;;;1.90;1.80;;;18.60;97.20;;;;;;5041297;28;20694;-87
2021/08/03 08:36:43;;;;;;;1.87;1.77;;;18.70;96.80;;;;;;5032709;28;20595;-86
2021/08/03 08:39:10;;;;;;;5.57;2.03;;;18.60;96.40;;;;;;5043659;28;21001;-87
2021/08/03 08:41:38;;;;;;;2.07;1.80;;;18.60;96.30;;;;;;5052475;28;21066;-87
2021/08/03 08:44:06;;;;;;;1.70;1.60;;;18.60;95.60;;;;;;5052543;28;20618;-88
2021/08/03 08:46:34;;;;;;;2.40;1.60;;;18.60;96.50;;;;;;5052283;28;20653;-87
2021/08/03 08:49:02;;;;;;;3.37;2.13;;;18.70;96.80;;;;;;5051948;28;21023;-87
2021/08/03 08:51:29;;;;;;;1.60;1.50;;;18.80;97.30;;;;;;5051123;28;21105;-87
2021/08/03 08:53:58;;;;;;;2.20;1.90;;;18.90;96.60;;;;;;5051769;28;20625;-88
2021/08/03 08:56:25;;;;;;;1.97;1.87;;;19.00;97.00;;;;;;5051391;28;20634;-88
2021/08/03 08:58:52;;;;;;;1.40;1.30;;;19.20;96.10;;;;;;5051679;28;20613;-87
2021/08/03 09:01:19;;;;;;;2.03;1.87;;;19.30;95.60;;;;;;5051100;28;20622;-86
2021/08/03 09:03:46;;;;;;;2.40;1.77;;;19.10;96.10;;;;;;5051387;28;20617;-86
2021/08/03 09:06:18;;;;;;;2.23;1.80;;;19.00;95.50;;;;;;5052037;28;20652;-87
2021/08/03 09:08:46;;;;;;;1.93;1.83;;;18.80;95.60;;;;;;5051896;28;20625;-86
2021/08/03 09:11:16;;;;;;;1.90;1.80;;;18.90;96.00;;;;;;5051130;28;20622;-86
2021/08/03 09:13:52;;;;;;;1.70;1.60;;;18.90;96.10;;;;;;5051667;28;20664;-86
2021/08/03 09:16:22;;;;;;;1.73;1.63;;;18.80;95.60;;;;;;5051343;28;20622;-87
2021/08/03 09:18:52;;;;;;;2.10;2.00;;;18.80;96.00;;;;;;5051555;28;20630;-87
2021/08/03 09:21:21;;;;;;;1.93;1.83;;;18.70;96.00;;;;;;5051473;28;20606;-85
2021/08/03 09:23:50;;;;;;;1.80;1.70;;;18.50;96.40;;;;;;5051423;28;20614;-87
2021/08/03 09:26:20;;;;;;;1.90;1.80;;;18.30;96.10;;;;;;5050745;28;21091;-87
2021/08/03 09:29:04;;;;;;;2.30;2.10;;;18.20;97.00;;;;;;5050955;28;20657;-87
2021/08/03 09:31:32;;;;;;;7.23;2.20;;;18.00;98.80;;;;;;5050908;28;20980;-87
2021/08/03 09:34:00;;;;;;;2.77;2.50;;;17.90;99.10;;;;;;5051977;28;20602;-88
2021/08/03 09:36:52;;;;;;;4.90;2.30;;;17.90;99.90;;;;;;5051762;28;20622;-87
2021/08/03 09:39:39;;;;;;;5.30;2.37;;;17.90;99.90;;;;;;5033076;28;20642;-87
2021/08/03 09:42:10;;;;;;;2.17;2.00;;;17.90;99.90;;;;;;5051889;28;20626;-86
2021/08/03 09:44:38;;;;;;;3.17;2.30;;;17.90;99.90;;;;;;5051827;28;20622;-86
2021/08/03 09:47:05;;;;;;;1.70;1.57;;;17.90;99.90;;;;;;5051317;28;20669;-86
2021/08/03 09:49:36;;;;;;;2.47;2.00;;;17.80;99.90;;;;;;5051764;28;20614;-86
2021/08/03 09:52:06;;;;;;;1.67;1.57;;;17.40;99.90;;;;;;5051319;28;20687;-87
2021/08/03 09:54:34;;;;;;;2.00;1.90;;;17.30;99.90;;;;;;5058455;28;20632;-87
2021/08/03 09:57:02;;;;;;;1.53;1.50;;;17.30;99.90;;;;;;5070695;28;20605;-86
2021/08/03 09:59:38;;;;;;;2.50;1.80;;;17.30;99.90;;;;;;5061644;28;20621;-86
2021/08/03 10:02:05;;;;;;;2.50;2.00;;;17.30;99.90;;;;;;5048598;28;20683;-85
2021/08/03 10:04:33;;;;;;;1.70;1.60;;;17.10;99.90;;;;;;5050072;28;20962;-87
2021/08/03 10:07:01;;;;;;;2.10;2.00;;;17.00;99.90;;;;;;5050362;28;20649;-88
2021/08/03 10:09:30;;;;;;;1.50;1.40;;;16.90;99.90;;;;;;5054492;28;20624;-87
2021/08/03 10:12:01;;;;;;;2.03;1.83;;;16.90;99.90;;;;;;5053311;28;20629;-88
2021/08/03 10:14:29;;;;;;;1.70;1.60;;;16.90;99.90;;;;;;5053354;28;20617;-88
2021/08/03 10:16:59;;;;;;;2.33;1.40;;;17.10;99.90;;;;;;5054046;28;20613;-87
2021/08/03 10:19:28;;;;;;;1.30;1.20;;;17.20;99.90;;;;;;5054223;28;20625;-87
2021/08/03 10:22:01;;;;;;;1.83;1.50;;;17.20;99.90;;;;;;5054254;28;20643;-88
2021/08/03 10:24:32;;;;;;;1.73;1.63;;;17.30;99.90;;;;;;5054835;28;20635;-88
2021/08/03 10:27:08;;;;;;;1.67;1.57;;;17.30;99.90;;;;;;5054666;28;20626;-87
2021/08/03 10:29:39;;;;;;;1.60;1.50;;;17.20;99.90;;;;;;5054890;28;20613;-86
2021/08/03 10:32:28;;;;;;;1.50;1.40;;;16.80;99.90;;;;;;5053283;28;20645;-86
2021/08/03 10:35:01;;;;;;;1.63;1.53;;;16.80;99.90;;;;;;5054765;28;20616;-87
2021/08/03 10:38:05;;;;;;;1.60;1.50;;;16.90;99.90;;;;;;5055396;28;21064;-87
2021/08/03 10:41:12;;;;;;;3.17;1.97;;;16.80;99.90;;;;;;5037759;28;21094;-86
2021/08/03 10:43:54;;;;;;;1.53;1.43;;;17.10;99.90;;;;;;5042686;28;20617;-86
2021/08/03 10:46:38;;;;;;;1.50;1.40;;;17.40;99.90;;;;;;5054717;28;21191;-87
2021/08/03 10:49:08;;;;;;;2.83;2.00;;;17.80;99.90;;;;;;5054497;28;20627;-86
2021/08/03 10:51:48;;;;;;;2.00;1.80;;;17.90;99.90;;;;;;5053636;28;21076;-87
2021/08/03 10:54:19;;;;;;;1.80;1.70;;;18.20;99.90;;;;;;5055045;28;20744;-87
2021/08/03 10:57:21;;;;;;;2.67;2.33;;;18.10;99.90;;;;;;5053556;28;20613;-86
2021/08/03 11:00:07;;;;;;;3.23;1.73;;;18.20;99.90;;;;;;5054572;28;20635;-88
2021/08/03 11:02:50;;;;;;;1.53;1.43;;;18.00;99.90;;;;;;5053679;28;20614;-87
2021/08/03 11:05:32;;;;;;;2.20;2.10;;;17.90;99.90;;;;;;5054281;28;20622;-88
2021/08/03 11:08:41;;;;;;;3.10;2.40;;;18.00;99.90;;;;;;5053830;28;21277;-88
2021/08/03 11:11:14;;;;;;;2.00;1.80;;;18.10;99.90;;;;;;5052957;28;20606;-87
2021/08/03 11:13:49;;;;;;;2.23;2.00;;;18.30;99.90;;;;;;5053243;28;20641;-87
2021/08/03 11:16:55;;;;;;;2.23;2.03;;;18.70;99.90;;;;;;5054236;28;20616;-87
2021/08/03 11:19:36;;;;;;;2.37;2.20;;;18.80;99.90;;;;;;5051115;28;21210;-87
2021/08/03 11:22:09;;;;;;;1.93;1.83;;;19.00;99.90;;;;;;5053810;28;21576;-87
2021/08/03 11:24:44;;;;;;;2.43;2.33;;;19.00;99.90;;;;;;5054480;28;20621;-87
2021/08/03 11:27:11;;;;;;;2.73;2.53;;;19.20;99.90;;;;;;5053472;28;20753;-86
2021/08/03 11:29:41;;;;;;;4.50;3.77;;;19.10;99.90;;;;;;5053162;28;20716;-87
2021/08/03 11:32:09;;;;;;;3.60;2.83;;;18.70;99.90;;;;;;5053180;28;20626;-87
2021/08/03 11:34:38;;;;;;;5.13;2.73;;;18.80;99.90;;;;;;5053079;28;20699;-85
2021/08/03 11:37:14;;;;;;;2.37;2.17;;;19.00;99.90;;;;;;5053188;28;21001;-86
2021/08/03 11:39:44;;;;;;;2.07;1.87;;;19.40;99.90;;;;;;5053659;28;20960;-87
2021/08/03 11:42:13;;;;;;;3.00;2.50;;;19.60;99.90;;;;;;5052458;28;20676;-86
2021/08/03 11:44:40;;;;;;;2.27;1.70;;;19.90;99.90;;;;;;5052569;28;20664;-86
2021/08/03 11:47:09;;;;;;;1.90;1.80;;;20.00;99.20;;;;;;5052937;28;20632;-87
2021/08/03 11:49:39;;;;;;;3.07;1.90;;;20.00;99.50;;;;;;5053714;28;20832;-86
2021/08/03 11:52:13;;;;;;;2.40;2.20;;;20.10;98.80;;;;;;5052889;28;20623;-87
2021/08/03 11:54:41;;;;;;;3.40;1.90;;;20.00;98.30;;;;;;5052204;28;20926;-87
2021/08/03 11:57:34;;;;;;;1.90;1.80;;;19.90;98.00;;;;;;5051674;28;20618;-87
2021/08/03 12:00:11;;;;;;;2.27;2.07;;;19.80;99.20;;;;;;5053065;28;20639;-87
2021/08/03 12:02:39;;;;;;;2.43;1.70;;;19.80;98.30;;;;;;5051515;28;20626;-87
2021/08/03 12:05:16;;;;;;;1.80;1.70;;;19.80;98.30;;;;;;5048508;28;20649;-88
2021/08/03 12:07:50;;;;;;;1.97;1.87;;;19.70;98.50;;;;;;5050040;28;20741;-87
2021/08/03 12:10:18;;;;;;;2.67;1.93;;;19.50;97.80;;;;;;5049614;28;21180;-86
2021/08/03 12:12:46;;;;;;;1.80;1.70;;;19.20;99.30;;;;;;5051670;28;21170;-87
2021/08/03 12:15:15;;;;;;;2.10;2.00;;;19.20;98.20;;;;;;5051966;28;20658;-87
2021/08/03 12:17:43;;;;;;;1.40;1.30;;;19.10;98.30;;;;;;5053337;28;21198;-88
2021/08/03 12:20:25;;;;;;;1.80;1.70;;;19.20;98.80;;;;;;5052470;28;20618;-87
2021/08/03 12:22:53;;;;;;;1.93;1.83;;;19.30;98.20;;;;;;5052303;28;20614;-87
2021/08/03 12:25:25;;;;;;;2.80;2.17;;;19.30;97.90;;;;;;5052571;28;21135;-88
2021/08/03 12:27:52;;;;;;;1.97;1.87;;;19.50;97.30;;;;;;5053054;28;20675;-88
2021/08/03 12:30:36;;;;;;;1.50;1.40;;;19.50;96.90;;;;;;5053052;28;20630;-87
2021/08/03 12:33:04;;;;;;;1.47;1.37;;;19.40;96.10;;;;;;5055843;28;20614;-87
2021/08/03 12:35:31;;;;;;;1.77;1.67;;;19.40;96.90;;;;;;5051953;28;20614;-88
2021/08/03 12:38:19;;;;;;;1.97;1.87;;;19.40;97.00;;;;;;5054739;28;20614;-87
2021/08/03 12:40:46;;;;;;;1.57;1.47;;;19.30;96.30;;;;;;5053224;28;20614;-88
2021/08/03 12:43:13;;;;;;;1.30;1.20;;;19.60;96.20;;;;;;5052844;28;20622;-88
2021/08/03 12:45:42;;;;;;;1.23;1.13;;;19.70;94.90;;;;;;5054750;28;20966;-88
2021/08/03 12:48:11;;;;;;;1.30;1.20;;;20.30;96.50;;;;;;5053976;28;20796;-88
2021/08/03 12:50:50;;;;;;;1.40;1.30;;;20.90;95.10;;;;;;5052975;28;20677;-88
2021/08/03 12:53:26;;;;;;;1.20;1.20;;;21.30;93.90;;;;;;5052247;28;20633;-89
2021/08/03 12:55:54;;;;;;;1.10;1.00;;;21.90;93.80;;;;;;5053665;28;20619;-88
2021/08/03 12:58:35;;;;;;;1.37;1.27;;;22.60;92.90;;;;;;5052929;28;20727;-87
2021/08/03 13:01:13;;;;;;;1.30;1.20;;;22.30;91.10;;;;;;5052453;28;20686;-89
2021/08/03 13:03:40;;;;;;;3.63;1.30;;;23.90;90.30;;;;;;5052220;28;20630;-89
2021/08/03 13:06:08;;;;;;;1.53;1.07;;;25.50;87.90;;;;;;5052372;28;20693;-89